This is the latest recevied weather packets stored in our database for station/object DH6PF-10. If no packets are shown the sender has not sent any weather packets the latest 10 day(s).
| Time | Temp. | Humidity | Pressure | Rain* | Wind** | Luminosity | Snow |
|---|---|---|---|---|---|---|---|
| 1787404910 | 17.78° C | 84% | 1022 hPa | - | - | - | - |
| 1787404310 | 17.22° C | 81% | 1021.8 hPa | - | - | - | - |
| 1787403710 | 15.56° C | 85% | 1022 hPa | - | - | - | - |
| 1787403110 | 15° C | 90% | 1022.1 hPa | - | - | - | - |
| 1787402510 | 14.44° C | 92% | 1021.9 hPa | - | - | - | - |
| 1787401910 | 13.89° C | 94% | 1021.8 hPa | - | - | - | - |
| 1787401310 | 13.89° C | 91% | 1022.3 hPa | - | - | - | - |
| 1787400710 | 15.56° C | 84% | 1022 hPa | - | - | - | - |
| 1787400110 | 17.22° C | 78% | 1021.6 hPa | - | - | - | - |
| 1787399510 | 17.22° C | 81% | 1021.3 hPa | - | - | - | - |
| 1787398910 | 17.78° C | 78% | 1021 hPa | - | - | - | - |
| 1787398310 | 17.78° C | 78% | 1021.3 hPa | - | - | - | - |
| 1787397110 | 17.22° C | 83% | 1021.1 hPa | - | - | - | - |
| 1787396510 | 18.33° C | 72% | 1021 hPa | - | - | - | - |
| 1787395910 | 17.22° C | 78% | 1020.7 hPa | - | - | - | - |
| 1787395309 | 17.78° C | 81% | 1020.6 hPa | - | - | - | - |
| 1787394710 | 17.78° C | 80% | 1020.6 hPa | - | - | - | - |
| 1787394109 | 16.67° C | 90% | 1020.6 hPa | - | - | - | - |
| 1787393510 | 16.67° C | 86% | 1020.6 hPa | - | - | - | - |
| 1787392910 | 16.11° C | 89% | 1020.8 hPa | - | - | - | - |
| 1787392309 | 16.11° C | 91% | 1020.6 hPa | - | - | - | - |
| 1787391710 | 16.11° C | 92% | 1020.5 hPa | - | - | - | - |
| 1787391109 | 16.11° C | 92% | 1020.3 hPa | - | - | - | - |
| 1787390509 | 16.11° C | 93% | 1020.4 hPa | - | - | - | - |
| 1787389910 | 15.56° C | 92% | 1020.5 hPa | - | - | - | - |
* Rain since midnight (hover to see other rain measurements)
** Current wind speed in m/s (hover to see current wind gust speed)